Friday, July 20, 2018, 8:19 PM EDT
Back to Local

KTHV, York Airport

Location: Spring Grove, PA, United States Lat: 39.917
Local Time: 8:19 PM EDT ( 0:19 GMT) Lon: -76.883
Time Zone: US/Eastern Elev: 478 ft

Show me the last for .
Show Decoded

2018-07-20 19:53 METAR KTHV 202353Z AUTO 14007KT 10SM CLR 26/14 A3005 RMK AO2 SLP174 T02560139
                 10289 20256 55002 =
2018-07-20 18:53 METAR KTHV 202253Z AUTO 10SM CLR 27/12 A3004 RMK AO2 SLP173 T02670122 =
2018-07-20 17:53 METAR KTHV 202153Z AUTO 16006KT 10SM CLR 27/13 A3004 RMK AO2 SLP172 T02720128 =
2018-07-20 16:53 METAR KTHV 202053Z AUTO 15010KT 10SM CLR 28/13 A3006 RMK AO2 SLP176 T02830133
                 56015 =
2018-07-20 15:53 METAR KTHV 201953Z AUTO 16005KT 10SM FEW060 28/15 A3007 RMK AO2 SLP180 T02830150
                 =
2018-07-20 14:53 METAR KTHV 201853Z AUTO 20009KT 10SM SCT055 29/16 A3008 RMK AO2 SLP185 T02890161
                 =
2018-07-20 13:53 METAR KTHV 201753Z AUTO VRB04KT 10SM SCT065 27/15 A3010 RMK AO2 SLP192 T02720150
                 10289 20206 58010 =
2018-07-20 12:53 METAR KTHV 201653Z AUTO 15007KT 10SM SCT055 28/15 A3012 RMK AO2 SLP196 T02830150
                 =
2018-07-20 11:53 METAR KTHV 201553Z AUTO VRB06G15KT 10SM BKN055 28/16 A3013 RMK AO2 SLP201
                 T02780161 =
2018-07-20 10:53 METAR KTHV 201453Z AUTO VRB05KT 10SM CLR 26/16 A3013 RMK AO2 SLP204 T02610161
                 58001 =
2018-07-20 09:53 METAR KTHV 201353Z AUTO 20005KT 10SM CLR 25/18 A3013 RMK AO2 SLP203 T02500183 =
2018-07-20 08:53 METAR KTHV 201253Z AUTO VRB03KT 10SM CLR 24/18 A3014 RMK AO2 SLP205 T02390183 =
2018-07-20 07:53 METAR KTHV 201153Z AUTO 00000KT 8SM CLR 21/17 A3014 RMK AO2 SLP204 T02060172
                 10206 20161 53008 =
2018-07-20 06:53 METAR KTHV 201053Z AUTO 00000KT 7SM CLR 18/16 A3013 RMK AO2 SLP201 T01780161 =
2018-07-20 05:53 METAR KTHV 200953Z AUTO 00000KT 9SM CLR 17/15 A3012 RMK AO2 SLP198 T01670150 =
2018-07-20 04:53 METAR KTHV 200853Z AUTO 00000KT 10SM CLR 17/16 A3011 RMK AO2 SLP196 T01720156
                 50000 =
2018-07-20 03:53 METAR KTHV 200753Z AUTO 00000KT 10SM FEW060 17/15 A3012 RMK AO2 SLP197 T01670150
                 =
2018-07-20 02:53 METAR KTHV 200653Z AUTO 00000KT 10SM BKN060 17/15 A3011 RMK AO2 SLP197 T01670150
                 =
2018-07-20 01:53 METAR KTHV 200553Z AUTO 00000KT 10SM CLR 18/16 A3011 RMK AO2 SLP197 T01780156
                 10261 20172 51005 =
2018-07-20 00:53 METAR KTHV 200453Z AUTO 00000KT 10SM CLR 19/16 A3011 RMK AO2 SLP195 T01940156
                 402890133 =
2018-07-19 23:53 METAR KTHV 200353Z AUTO 00000KT 10SM CLR 19/16 A3011 RMK AO2 SLP194 T01940156 =
2018-07-19 22:53 METAR KTHV 200253Z AUTO 14003KT 10SM CLR 18/16 A3010 RMK AO2 SLP191 T01830161
                 51013 =
2018-07-19 21:53 METAR KTHV 200153Z AUTO 00000KT 10SM CLR 19/17 A3009 RMK AO2 SLP188 T01890167 =
2018-07-19 20:53 METAR KTHV 200053Z AUTO 00000KT 10SM CLR 21/17 A3007 RMK AO2 SLP183 T02110172 =

Support USWX by starting your Amazon purchase here.